This is the latest recevied weather packets stored in our database for station/object JH0FOG-13. If no packets are shown the sender has not sent any weather packets the latest 10 day(s).
| Time | Temp. | Humidity | Pressure | Rain* | Wind** | Luminosity | Snow |
|---|---|---|---|---|---|---|---|
| 1777786802 | 26.67° C | 38% | 1002.6 hPa | 0 mm | - | - | - |
| 1777785602 | 27.22° C | 36% | 1002.6 hPa | 0 mm | - | - | - |
| 1777784402 | 27.22° C | 35% | 1003 hPa | 0 mm | - | - | - |
| 1777783202 | 27.22° C | 35% | 1003.5 hPa | 0 mm | - | - | - |
| 1777782002 | 27.78° C | 34% | 1004.1 hPa | 0 mm | - | - | - |
| 1777780802 | 27.78° C | 33% | 1004.4 hPa | 0 mm | - | - | - |
| 1777779602 | 28.33° C | 30% | 1004.8 hPa | 0 mm | - | - | - |
| 1777778402 | 28.89° C | 31% | 1005 hPa | 0 mm | - | - | - |
| 1777777202 | 28.33° C | 30% | 1005.3 hPa | 0 mm | - | - | - |
| 1777776002 | 27.78° C | 32% | 1005.9 hPa | 0 mm | - | - | - |
| 1777774802 | 27.22° C | 33% | 1006 hPa | 0 mm | - | - | - |
| 1777773602 | 27.22° C | 33% | 1006.4 hPa | 0 mm | - | - | - |
| 1777772402 | 26.67° C | 34% | 1007 hPa | 0 mm | - | - | - |
| 1777771202 | 26.11° C | 37% | 1007.5 hPa | 0 mm | - | - | - |
| 1777770002 | 24.44° C | 43% | 1007.8 hPa | 0 mm | - | - | - |
| 1777768802 | 22.78° C | 48% | 1008.1 hPa | 0 mm | - | - | - |
| 1777767602 | 21.67° C | 57% | 1008.5 hPa | 0 mm | - | - | - |
| 1777766402 | 20.56° C | 54% | 1009.2 hPa | 0 mm | - | - | - |
| 1777765202 | 18.33° C | 63% | 1010.2 hPa | 0 mm | - | - | - |
| 1777764002 | 14.44° C | 79% | 1010.6 hPa | 0 mm | - | - | - |
| 1777762802 | 14.44° C | 79% | 1011.1 hPa | 0 mm | - | - | - |
| 1777761602 | 13.33° C | 80% | 1011.9 hPa | 0 mm | - | - | - |
| 1777760402 | 12.22° C | 84% | 1012.3 hPa | 0 mm | - | - | - |
| 1777759202 | 11.67° C | 86% | 1012.5 hPa | 0 mm | - | - | - |
| 1777758002 | 11.11° C | 87% | 1012.5 hPa | 0 mm | - | - | - |
* Rain latest hour (hover to see other rain measurements)
** Current wind speed in m/s (hover to see current wind gust speed)